sensor_id;sensor_type;location;lat;lon;timestamp;pressure;altitude;pressure_sealevel;temperature;humidity
71601;BME280;59446;52.192;4.628;2022-12-24T00:00:23;100557.69;;;17.38;54.89
71601;BME280;59446;52.192;4.628;2022-12-24T00:02:49;100554.84;;;17.41;54.78
71601;BME280;59446;52.192;4.628;2022-12-24T00:05:14;100557.78;;;17.37;54.55
71601;BME280;59446;52.192;4.628;2022-12-24T00:07:40;100557.22;;;17.32;54.66
71601;BME280;59446;52.192;4.628;2022-12-24T00:10:06;100561.63;;;17.31;54.47
71601;BME280;59446;52.192;4.628;2022-12-24T00:12:32;100565.13;;;17.32;54.62
71601;BME280;59446;52.192;4.628;2022-12-24T00:14:57;100567.00;;;17.30;54.76
71601;BME280;59446;52.192;4.628;2022-12-24T00:17:23;100575.84;;;17.28;54.73
71601;BME280;59446;52.192;4.628;2022-12-24T00:19:48;100574.03;;;17.29;54.63
71601;BME280;59446;52.192;4.628;2022-12-24T00:22:14;100577.34;;;17.33;54.43
71601;BME280;59446;52.192;4.628;2022-12-24T00:24:39;100573.19;;;17.28;54.54
71601;BME280;59446;52.192;4.628;2022-12-24T00:27:05;100577.63;;;17.28;54.42
71601;BME280;59446;52.192;4.628;2022-12-24T00:29:30;100585.72;;;17.25;54.80
71601;BME280;59446;52.192;4.628;2022-12-24T00:31:56;100589.09;;;17.27;54.61
71601;BME280;59446;52.192;4.628;2022-12-24T00:34:23;100586.53;;;17.25;54.36
71601;BME280;59446;52.192;4.628;2022-12-24T00:36:49;100589.28;;;17.24;54.29
71601;BME280;59446;52.192;4.628;2022-12-24T00:39:14;100579.66;;;17.23;54.27
71601;BME280;59446;52.192;4.628;2022-12-24T00:41:39;100588.91;;;17.30;54.00
71601;BME280;59446;52.192;4.628;2022-12-24T00:44:06;100596.22;;;17.25;54.45
71601;BME280;59446;52.192;4.628;2022-12-24T00:46:35;100599.31;;;17.17;54.67
71601;BME280;59446;52.192;4.628;2022-12-24T00:49:00;100613.41;;;17.16;54.45
71601;BME280;59446;52.192;4.628;2022-12-24T00:51:26;100604.75;;;17.14;54.69
71601;BME280;59446;52.192;4.628;2022-12-24T00:53:52;100615.19;;;17.16;54.08
71601;BME280;59446;52.192;4.628;2022-12-24T00:56:17;100620.25;;;17.19;54.78
71601;BME280;59446;52.192;4.628;2022-12-24T00:58:43;100628.44;;;17.14;54.83
71601;BME280;59446;52.192;4.628;2022-12-24T01:01:09;100625.97;;;17.11;54.76
71601;BME280;59446;52.192;4.628;2022-12-24T01:03:34;100632.75;;;17.15;54.29
71601;BME280;59446;52.192;4.628;2022-12-24T01:06:05;100625.88;;;17.13;54.72
71601;BME280;59446;52.192;4.628;2022-12-24T01:08:31;100634.91;;;17.09;54.75
71601;BME280;59446;52.192;4.628;2022-12-24T01:10:57;100641.00;;;17.09;54.59
71601;BME280;59446;52.192;4.628;2022-12-24T01:13:22;100638.19;;;17.12;54.38
71601;BME280;59446;52.192;4.628;2022-12-24T01:15:48;100643.38;;;17.14;54.27
71601;BME280;59446;52.192;4.628;2022-12-24T01:18:13;100649.66;;;17.11;54.45
71601;BME280;59446;52.192;4.628;2022-12-24T01:20:39;100654.09;;;17.11;54.41
71601;BME280;59446;52.192;4.628;2022-12-24T01:23:04;100653.50;;;17.06;54.30
71601;BME280;59446;52.192;4.628;2022-12-24T01:25:29;100657.84;;;17.07;54.65
71601;BME280;59446;52.192;4.628;2022-12-24T01:27:55;100654.53;;;17.03;54.62
71601;BME280;59446;52.192;4.628;2022-12-24T01:30:20;100663.19;;;17.05;54.27
71601;BME280;59446;52.192;4.628;2022-12-24T01:32:46;100663.19;;;17.05;54.34
71601;BME280;59446;52.192;4.628;2022-12-24T01:35:11;100662.16;;;17.08;54.56
71601;BME280;59446;52.192;4.628;2022-12-24T01:37:37;100656.22;;;17.04;54.70
71601;BME280;59446;52.192;4.628;2022-12-24T01:40:04;100666.06;;;17.01;54.57
71601;BME280;59446;52.192;4.628;2022-12-24T01:42:48;100677.59;;;16.98;54.72
71601;BME280;59446;52.192;4.628;2022-12-24T01:45:43;100679.47;;;16.96;54.86
71601;BME280;59446;52.192;4.628;2022-12-24T01:50:58;100686.25;;;17.00;54.42
71601;BME280;59446;52.192;4.628;2022-12-24T01:53:25;100682.88;;;16.98;54.72
71601;BME280;59446;52.192;4.628;2022-12-24T01:55:52;100692.72;;;16.94;54.82
71601;BME280;59446;52.192;4.628;2022-12-24T01:58:19;100694.16;;;17.00;54.39
71601;BME280;59446;52.192;4.628;2022-12-24T02:00:45;100688.22;;;16.96;54.54
71601;BME280;59446;52.192;4.628;2022-12-24T02:03:11;100698.56;;;17.00;54.76
71601;BME280;59446;52.192;4.628;2022-12-24T02:05:54;100713.00;;;16.92;54.74
71601;BME280;59446;52.192;4.628;2022-12-24T02:08:21;100710.47;;;16.91;54.66
71601;BME280;59446;52.192;4.628;2022-12-24T02:10:48;100715.28;;;16.98;54.22
71601;BME280;59446;52.192;4.628;2022-12-24T02:13:16;100718.66;;;17.01;54.57
71601;BME280;59446;52.192;4.628;2022-12-24T02:19:16;100726.66;;;16.99;54.50
71601;BME280;59446;52.192;4.628;2022-12-24T02:24:41;100731.06;;;16.98;54.24
71601;BME280;59446;52.192;4.628;2022-12-24T02:27:27;100732.09;;;16.96;54.54
71601;BME280;59446;52.192;4.628;2022-12-24T02:32:40;100735.06;;;16.90;54.35
71601;BME280;59446;52.192;4.628;2022-12-24T02:35:11;100730.50;;;16.93;54.64
71601;BME280;59446;52.192;4.628;2022-12-24T02:37:43;100741.19;;;16.90;54.45
71601;BME280;59446;52.192;4.628;2022-12-24T02:40:26;100739.75;;;16.85;54.16
71601;BME280;59446;52.192;4.628;2022-12-24T02:42:57;100737.13;;;16.85;54.67
71601;BME280;59446;52.192;4.628;2022-12-24T02:45:27;100739.75;;;16.85;54.47
71601;BME280;59446;52.192;4.628;2022-12-24T02:47:54;100737.88;;;16.87;54.73
71601;BME280;59446;52.192;4.628;2022-12-24T02:50:20;100748.22;;;16.90;54.03
71601;BME280;59446;52.192;4.628;2022-12-24T02:52:47;100755.53;;;16.85;54.97
71601;BME280;59446;52.192;4.628;2022-12-24T02:55:17;100748.41;;;16.87;54.59
71601;BME280;59446;52.192;4.628;2022-12-24T02:58:02;100746.72;;;16.86;54.13
71601;BME280;59446;52.192;4.628;2022-12-24T03:03:33;100746.88;;;16.83;54.41
71601;BME280;59446;52.192;4.628;2022-12-24T03:06:15;100763.50;;;16.83;54.90
71601;BME280;59446;52.192;4.628;2022-12-24T03:11:17;100756.56;;;16.82;54.41
71601;BME280;59446;52.192;4.628;2022-12-24T03:13:42;100759.41;;;16.78;54.86
71601;BME280;59446;52.192;4.628;2022-12-24T03:16:16;100762.91;;;16.78;54.50
71601;BME280;59446;52.192;4.628;2022-12-24T03:18:45;100767.94;;;16.83;54.59
71601;BME280;59446;52.192;4.628;2022-12-24T03:21:28;100778.66;;;16.78;54.77
71601;BME280;59446;52.192;4.628;2022-12-24T03:23:55;100783.03;;;16.79;54.60
71601;BME280;59446;52.192;4.628;2022-12-24T03:26:21;100780.47;;;16.78;54.54
71601;BME280;59446;52.192;4.628;2022-12-24T03:28:47;100776.22;;;16.75;54.85
71601;BME280;59446;52.192;4.628;2022-12-24T03:31:13;100773.50;;;16.77;54.35
71601;BME280;59446;52.192;4.628;2022-12-24T03:33:39;100792.00;;;16.75;54.46
71601;BME280;59446;52.192;4.628;2022-12-24T03:36:06;100784.28;;;16.72;54.45
71601;BME280;59446;52.192;4.628;2022-12-24T03:38:32;100790.22;;;16.76;54.71
71601;BME280;59446;52.192;4.628;2022-12-24T03:40:57;100789.53;;;16.72;54.51
71601;BME280;59446;52.192;4.628;2022-12-24T03:43:23;100789.63;;;16.71;54.45
71601;BME280;59446;52.192;4.628;2022-12-24T03:45:48;100791.41;;;16.70;54.54
71601;BME280;59446;52.192;4.628;2022-12-24T03:48:13;100790.47;;;16.71;54.14
71601;BME280;59446;52.192;4.628;2022-12-24T03:50:39;100785.97;;;16.73;54.52
71601;BME280;59446;52.192;4.628;2022-12-24T03:53:04;100782.59;;;16.71;54.45
71601;BME280;59446;52.192;4.628;2022-12-24T03:55:30;100786.91;;;16.72;54.46
71601;BME280;59446;52.192;4.628;2022-12-24T03:57:55;100788.34;;;16.78;54.32
71601;BME280;59446;52.192;4.628;2022-12-24T04:00:21;100787.34;;;16.80;54.08
71601;BME280;59446;52.192;4.628;2022-12-24T04:02:46;100792.00;;;16.75;54.32
71601;BME280;59446;52.192;4.628;2022-12-24T04:05:13;100801.00;;;16.71;54.30
71601;BME280;59446;52.192;4.628;2022-12-24T04:07:40;100801.25;;;16.66;54.42
71601;BME280;59446;52.192;4.628;2022-12-24T04:10:06;100796.00;;;16.66;54.60
71601;BME280;59446;52.192;4.628;2022-12-24T04:12:31;100795.06;;;16.67;54.41
71601;BME280;59446;52.192;4.628;2022-12-24T04:14:57;100794.97;;;16.69;54.73
71601;BME280;59446;52.192;4.628;2022-12-24T04:17:22;100800.47;;;16.64;54.70
71601;BME280;59446;52.192;4.628;2022-12-24T04:19:47;100809.97;;;16.67;54.65
71601;BME280;59446;52.192;4.628;2022-12-24T04:22:13;100803.69;;;16.70;54.25
71601;BME280;59446;52.192;4.628;2022-12-24T04:24:38;100806.41;;;16.68;54.51
71601;BME280;59446;52.192;4.628;2022-12-24T04:27:03;100805.66;;;16.66;54.74
71601;BME280;59446;52.192;4.628;2022-12-24T04:29:29;100808.13;;;16.69;54.38
71601;BME280;59446;52.192;4.628;2022-12-24T04:31:54;100819.66;;;16.66;54.59
71601;BME280;59446;52.192;4.628;2022-12-24T04:34:20;100817.94;;;16.65;54.44
71601;BME280;59446;52.192;4.628;2022-12-24T04:36:45;100815.41;;;16.64;54.38
71601;BME280;59446;52.192;4.628;2022-12-24T04:39:10;100819.66;;;16.66;54.76
71601;BME280;59446;52.192;4.628;2022-12-24T04:41:36;100833.91;;;16.62;54.76
71601;BME280;59446;52.192;4.628;2022-12-24T04:44:01;100814.56;;;16.63;54.41
71601;BME280;59446;52.192;4.628;2022-12-24T04:46:28;100820.75;;;16.62;54.90
71601;BME280;59446;52.192;4.628;2022-12-24T04:48:57;100826.91;;;16.61;54.96
71601;BME280;59446;52.192;4.628;2022-12-24T04:51:24;100833.91;;;16.62;54.62
71601;BME280;59446;52.192;4.628;2022-12-24T04:53:50;100835.72;;;16.60;54.47
71601;BME280;59446;52.192;4.628;2022-12-24T04:56:19;100839.06;;;16.64;54.33
71601;BME280;59446;52.192;4.628;2022-12-24T04:58:44;100834.66;;;16.64;54.16
71601;BME280;59446;52.192;4.628;2022-12-24T05:01:19;100834.03;;;16.59;54.36
71601;BME280;59446;52.192;4.628;2022-12-24T05:03:45;100840.22;;;16.58;54.40
71601;BME280;59446;52.192;4.628;2022-12-24T05:06:13;100828.47;;;16.65;54.17
71601;BME280;59446;52.192;4.628;2022-12-24T05:08:39;100835.72;;;16.60;54.21
71601;BME280;59446;52.192;4.628;2022-12-24T05:11:05;100841.84;;;16.61;54.45
71601;BME280;59446;52.192;4.628;2022-12-24T05:13:30;100849.69;;;16.62;54.21
71601;BME280;59446;52.192;4.628;2022-12-24T05:15:56;100841.28;;;16.54;54.28
71601;BME280;59446;52.192;4.628;2022-12-24T05:18:22;100842.16;;;16.55;54.75
71601;BME280;59446;52.192;4.628;2022-12-24T05:20:48;100844.84;;;16.53;54.38
71601;BME280;59446;52.192;4.628;2022-12-24T05:23:22;100844.47;;;16.61;54.21
71601;BME280;59446;52.192;4.628;2022-12-24T05:26:15;100849.13;;;16.56;54.09
71601;BME280;59446;52.192;4.628;2022-12-24T05:28:54;100851.88;;;16.53;54.29
71601;BME280;59446;52.192;4.628;2022-12-24T05:31:20;100854.53;;;16.53;54.42
71601;BME280;59446;52.192;4.628;2022-12-24T05:33:46;100848.13;;;16.58;54.39
71601;BME280;59446;52.192;4.628;2022-12-24T05:36:12;100850.13;;;16.53;54.42
71601;BME280;59446;52.192;4.628;2022-12-24T05:38:38;100846.72;;;16.51;54.81
71601;BME280;59446;52.192;4.628;2022-12-24T05:41:04;100834.66;;;16.47;54.55
71601;BME280;59446;52.192;4.628;2022-12-24T05:43:30;100844.00;;;16.53;54.22
71601;BME280;59446;52.192;4.628;2022-12-24T05:45:59;100844.72;;;16.56;54.07
71601;BME280;59446;52.192;4.628;2022-12-24T05:48:25;100841.47;;;16.51;54.32
71601;BME280;59446;52.192;4.628;2022-12-24T05:50:50;100850.38;;;16.49;54.15
71601;BME280;59446;52.192;4.628;2022-12-24T05:53:16;100853.84;;;16.49;54.23
71601;BME280;59446;52.192;4.628;2022-12-24T05:55:41;100861.63;;;16.51;54.34
71601;BME280;59446;52.192;4.628;2022-12-24T05:58:06;100863.41;;;16.50;54.21
71601;BME280;59446;52.192;4.628;2022-12-24T06:00:32;100869.22;;;16.57;54.40
71601;BME280;59446;52.192;4.628;2022-12-24T06:02:57;100866.72;;;16.54;54.09
71601;BME280;59446;52.192;4.628;2022-12-24T06:05:22;100878.44;;;16.48;54.46
71601;BME280;59446;52.192;4.628;2022-12-24T06:07:48;100878.03;;;16.56;53.91
71601;BME280;59446;52.192;4.628;2022-12-24T06:10:13;100882.50;;;16.54;54.04
71601;BME280;59446;52.192;4.628;2022-12-24T06:12:38;100883.75;;;16.47;54.78
71601;BME280;59446;52.192;4.628;2022-12-24T06:15:04;100891.66;;;16.47;54.66
71601;BME280;59446;52.192;4.628;2022-12-24T06:17:30;100893.34;;;16.48;54.51
71601;BME280;59446;52.192;4.628;2022-12-24T06:19:55;100884.63;;;16.47;54.56
71601;BME280;59446;52.192;4.628;2022-12-24T06:22:20;100896.13;;;16.45;54.63
71601;BME280;59446;52.192;4.628;2022-12-24T06:24:46;100897.16;;;16.42;54.79
71601;BME280;59446;52.192;4.628;2022-12-24T06:27:11;100910.28;;;16.42;54.31
71601;BME280;59446;52.192;4.628;2022-12-24T06:29:36;100913.78;;;16.43;54.28
71601;BME280;59446;52.192;4.628;2022-12-24T06:32:02;100913.69;;;16.44;54.42
71601;BME280;59446;52.192;4.628;2022-12-24T06:34:27;100920.66;;;16.45;54.21
71601;BME280;59446;52.192;4.628;2022-12-24T06:36:53;100920.66;;;16.45;54.51
71601;BME280;59446;52.192;4.628;2022-12-24T06:39:18;100911.22;;;16.41;54.73
71601;BME280;59446;52.192;4.628;2022-12-24T06:41:43;100912.00;;;16.43;54.56
71601;BME280;59446;52.192;4.628;2022-12-24T06:44:09;100908.59;;;16.41;54.29
71601;BME280;59446;52.192;4.628;2022-12-24T06:46:34;100912.00;;;16.43;54.68
71601;BME280;59446;52.192;4.628;2022-12-24T06:49:00;100916.66;;;16.38;54.56
71601;BME280;59446;52.192;4.628;2022-12-24T06:51:25;100912.06;;;16.42;54.56
71601;BME280;59446;52.192;4.628;2022-12-24T06:53:51;100912.16;;;16.40;54.86
71601;BME280;59446;52.192;4.628;2022-12-24T06:56:17;100913.84;;;16.41;54.72
71601;BME280;59446;52.192;4.628;2022-12-24T06:58:43;100917.41;;;16.40;54.75
71601;BME280;59446;52.192;4.628;2022-12-24T07:01:14;100927.94;;;16.40;54.59
71601;BME280;59446;52.192;4.628;2022-12-24T07:03:40;100921.91;;;16.38;54.00
71601;BME280;59446;52.192;4.628;2022-12-24T07:06:07;100917.56;;;16.37;54.24
71601;BME280;59446;52.192;4.628;2022-12-24T07:08:35;100922.75;;;16.39;54.71
71601;BME280;59446;52.192;4.628;2022-12-24T07:11:00;100920.03;;;16.40;54.59
71601;BME280;59446;52.192;4.628;2022-12-24T07:13:26;100919.09;;;16.41;54.14
71601;BME280;59446;52.192;4.628;2022-12-24T07:16:02;100922.66;;;16.40;54.10
71601;BME280;59446;52.192;4.628;2022-12-24T07:18:28;100929.63;;;16.41;54.10
71601;BME280;59446;52.192;4.628;2022-12-24T07:20:53;100933.03;;;16.43;53.96
71601;BME280;59446;52.192;4.628;2022-12-24T07:23:19;100934.97;;;16.40;54.42
71601;BME280;59446;52.192;4.628;2022-12-24T07:25:45;100945.72;;;16.35;54.30
71601;BME280;59446;52.192;4.628;2022-12-24T07:28:10;100948.78;;;16.43;54.48
71601;BME280;59446;52.192;4.628;2022-12-24T07:30:36;100958.84;;;16.35;54.28
71601;BME280;59446;52.192;4.628;2022-12-24T07:33:01;100964.22;;;16.32;54.73
71601;BME280;59446;52.192;4.628;2022-12-24T07:35:26;100965.94;;;16.33;54.64
71601;BME280;59446;52.192;4.628;2022-12-24T07:37:52;100973.13;;;16.29;54.98
71601;BME280;59446;52.192;4.628;2022-12-24T07:40:17;100980.94;;;16.31;54.30
71601;BME280;59446;52.192;4.628;2022-12-24T07:42:42;100987.50;;;16.22;54.63
71601;BME280;59446;52.192;4.628;2022-12-24T07:45:08;100988.59;;;16.18;55.07
71601;BME280;59446;52.192;4.628;2022-12-24T07:47:34;100996.72;;;16.14;55.13
71601;BME280;59446;52.192;4.628;2022-12-24T07:50:00;100996.78;;;16.12;54.97
71601;BME280;59446;52.192;4.628;2022-12-24T07:52:25;101004.88;;;16.08;54.94
71601;BME280;59446;52.192;4.628;2022-12-24T07:54:50;101010.97;;;16.08;55.27
71601;BME280;59446;52.192;4.628;2022-12-24T07:57:16;101013.75;;;16.05;54.87
71601;BME280;59446;52.192;4.628;2022-12-24T07:59:41;101019.06;;;16.03;55.17
71601;BME280;59446;52.192;4.628;2022-12-24T08:02:09;101025.47;;;15.98;54.91
71601;BME280;59446;52.192;4.628;2022-12-24T08:04:35;101042.09;;;15.98;54.94
71601;BME280;59446;52.192;4.628;2022-12-24T08:07:04;101034.44;;;15.94;55.03
71601;BME280;59446;52.192;4.628;2022-12-24T08:09:34;101034.41;;;16.13;55.12
71601;BME280;59446;52.192;4.628;2022-12-24T08:12:00;101036.00;;;16.34;54.35
71601;BME280;59446;52.192;4.628;2022-12-24T08:14:27;101042.66;;;16.58;54.19
71601;BME280;59446;52.192;4.628;2022-12-24T08:16:53;101037.13;;;16.64;54.11
71601;BME280;59446;52.192;4.628;2022-12-24T08:19:18;101036.88;;;16.69;53.67
71601;BME280;59446;52.192;4.628;2022-12-24T08:21:43;101039.25;;;16.74;53.74
71601;BME280;59446;52.192;4.628;2022-12-24T08:24:09;101043.06;;;16.85;53.35
71601;BME280;59446;52.192;4.628;2022-12-24T08:26:34;101044.66;;;17.05;53.28
71601;BME280;59446;52.192;4.628;2022-12-24T08:29:01;101060.66;;;17.18;52.65
71601;BME280;59446;52.192;4.628;2022-12-24T08:31:26;101068.53;;;17.18;52.88
71601;BME280;59446;52.192;4.628;2022-12-24T08:33:51;101058.88;;;17.18;52.94
71601;BME280;59446;52.192;4.628;2022-12-24T08:36:17;101072.50;;;17.26;52.53
71601;BME280;59446;52.192;4.628;2022-12-24T08:38:42;101074.03;;;17.31;52.49
71601;BME280;59446;52.192;4.628;2022-12-24T08:41:07;101077.66;;;17.28;52.86
71601;BME280;59446;52.192;4.628;2022-12-24T08:43:33;101081.06;;;17.30;52.53
71601;BME280;59446;52.192;4.628;2022-12-24T08:46:03;101092.81;;;17.40;52.75
71601;BME280;59446;52.192;4.628;2022-12-24T08:48:30;101095.34;;;17.42;52.25
71601;BME280;59446;52.192;4.628;2022-12-24T08:50:55;101083.03;;;17.42;52.49
71601;BME280;59446;52.192;4.628;2022-12-24T08:53:21;101103.41;;;17.39;52.69
71601;BME280;59446;52.192;4.628;2022-12-24T08:55:46;101108.00;;;17.35;52.51
71601;BME280;59446;52.192;4.628;2022-12-24T08:58:12;101097.72;;;17.31;52.86
71601;BME280;59446;52.192;4.628;2022-12-24T09:00:38;101100.59;;;17.26;52.78
71601;BME280;59446;52.192;4.628;2022-12-24T09:03:03;101103.59;;;17.18;53.14
71601;BME280;59446;52.192;4.628;2022-12-24T09:05:28;101107.63;;;17.25;52.82
71601;BME280;59446;52.192;4.628;2022-12-24T09:07:54;101109.34;;;17.26;52.86
71601;BME280;59446;52.192;4.628;2022-12-24T09:10:19;101109.41;;;17.25;52.62
71601;BME280;59446;52.192;4.628;2022-12-24T09:12:45;101113.03;;;17.22;52.66
71601;BME280;59446;52.192;4.628;2022-12-24T09:15:10;101126.34;;;17.19;52.99
71601;BME280;59446;52.192;4.628;2022-12-24T09:17:36;101137.44;;;17.26;52.49
71601;BME280;59446;52.192;4.628;2022-12-24T09:20:02;101140.16;;;17.24;52.63
71601;BME280;59446;52.192;4.628;2022-12-24T09:22:28;101148.19;;;17.21;52.81
71601;BME280;59446;52.192;4.628;2022-12-24T09:24:53;101137.81;;;17.18;52.92
71601;BME280;59446;52.192;4.628;2022-12-24T09:27:19;101145.78;;;17.17;52.96
71601;BME280;59446;52.192;4.628;2022-12-24T09:29:44;101151.53;;;17.25;52.48
71601;BME280;59446;52.192;4.628;2022-12-24T09:32:10;101162.09;;;17.23;52.82
71601;BME280;59446;52.192;4.628;2022-12-24T09:34:35;101153.44;;;17.21;52.73
71601;BME280;59446;52.192;4.628;2022-12-24T09:37:01;101161.50;;;17.18;52.92
71601;BME280;59446;52.192;4.628;2022-12-24T09:39:27;101162.34;;;17.19;52.80
71601;BME280;59446;52.192;4.628;2022-12-24T09:41:58;101162.75;;;17.28;52.48
71601;BME280;59446;52.192;4.628;2022-12-24T09:47:08;101157.41;;;17.30;52.89
71601;BME280;59446;52.192;4.628;2022-12-24T09:49:39;101165.31;;;17.30;53.40
71601;BME280;59446;52.192;4.628;2022-12-24T09:52:10;101166.75;;;17.53;52.68
71601;BME280;59446;52.192;4.628;2022-12-24T09:54:40;101172.03;;;17.70;52.54
71601;BME280;59446;52.192;4.628;2022-12-24T09:57:16;101174.75;;;17.84;52.77
71601;BME280;59446;52.192;4.628;2022-12-24T09:59:44;101177.09;;;18.06;52.22
71601;BME280;59446;52.192;4.628;2022-12-24T10:02:13;101178.47;;;18.29;51.74
71601;BME280;59446;52.192;4.628;2022-12-24T10:04:40;101176.53;;;18.48;51.44
71601;BME280;59446;52.192;4.628;2022-12-24T10:15:34;101171.53;;;18.90;50.68
71601;BME280;59446;52.192;4.628;2022-12-24T10:21:09;101176.41;;;19.12;50.50
71601;BME280;59446;52.192;4.628;2022-12-24T10:23:58;101183.41;;;19.13;50.37
71601;BME280;59446;52.192;4.628;2022-12-24T10:26:44;101182.94;;;19.20;51.22
71601;BME280;59446;52.192;4.628;2022-12-24T10:29:16;101193.00;;;19.29;51.23
71601;BME280;59446;52.192;4.628;2022-12-24T10:31:55;101192.91;;;19.31;51.24
71601;BME280;59446;52.192;4.628;2022-12-24T10:34:24;101193.69;;;19.17;52.67
71601;BME280;59446;52.192;4.628;2022-12-24T10:36:52;101193.41;;;19.22;51.93
71601;BME280;59446;52.192;4.628;2022-12-24T10:39:20;101195.28;;;19.20;51.49
71601;BME280;59446;52.192;4.628;2022-12-24T10:41:48;101191.91;;;19.18;51.58
71601;BME280;59446;52.192;4.628;2022-12-24T10:44:17;101189.91;;;19.21;51.46
71601;BME280;59446;52.192;4.628;2022-12-24T10:46:44;101193.09;;;19.28;51.40
71601;BME280;59446;52.192;4.628;2022-12-24T10:52:18;101200.00;;;19.15;52.35
71601;BME280;59446;52.192;4.628;2022-12-24T10:55:09;101209.09;;;19.25;52.47
71601;BME280;59446;52.192;4.628;2022-12-24T10:57:36;101221.59;;;19.21;52.72
71601;BME280;59446;52.192;4.628;2022-12-24T11:00:04;101216.22;;;19.23;53.00
71601;BME280;59446;52.192;4.628;2022-12-24T11:04:56;101208.28;;;19.08;52.66
71601;BME280;59446;52.192;4.628;2022-12-24T11:07:23;101224.25;;;19.21;52.23
71601;BME280;59446;52.192;4.628;2022-12-24T11:10:00;101226.25;;;19.02;52.91
71601;BME280;59446;52.192;4.628;2022-12-24T11:12:52;101221.97;;;19.15;52.45
71601;BME280;59446;52.192;4.628;2022-12-24T11:15:22;101222.91;;;19.14;52.57
71601;BME280;59446;52.192;4.628;2022-12-24T11:18:03;101211.69;;;19.10;52.69
71601;BME280;59446;52.192;4.628;2022-12-24T11:20:33;101216.97;;;19.10;52.76
71601;BME280;59446;52.192;4.628;2022-12-24T11:23:00;101216.13;;;19.10;52.78
71601;BME280;59446;52.192;4.628;2022-12-24T11:25:30;101213.56;;;19.08;52.64
71601;BME280;59446;52.192;4.628;2022-12-24T11:28:10;101213.75;;;19.05;52.33
71601;BME280;59446;52.192;4.628;2022-12-24T11:30:37;101230.50;;;19.04;52.15
71601;BME280;59446;52.192;4.628;2022-12-24T11:35:32;101233.31;;;19.01;52.37
71601;BME280;59446;52.192;4.628;2022-12-24T11:40:35;101236.28;;;19.11;51.67
71601;BME280;59446;52.192;4.628;2022-12-24T11:43:03;101242.31;;;19.13;51.67
71601;BME280;59446;52.192;4.628;2022-12-24T11:45:30;101241.06;;;19.04;51.90
71601;BME280;59446;52.192;4.628;2022-12-24T11:47:57;101245.16;;;19.10;51.80
71601;BME280;59446;52.192;4.628;2022-12-24T11:50:35;101239.78;;;19.12;51.41
71601;BME280;59446;52.192;4.628;2022-12-24T11:53:11;101239.97;;;19.08;51.55
71601;BME280;59446;52.192;4.628;2022-12-24T11:55:51;101244.41;;;19.08;51.17
71601;BME280;59446;52.192;4.628;2022-12-24T12:00:50;101251.84;;;19.16;51.03
71601;BME280;59446;52.192;4.628;2022-12-24T12:03:32;101248.94;;;19.20;51.31
71601;BME280;59446;52.192;4.628;2022-12-24T12:06:02;101237.72;;;19.17;51.23
71601;BME280;59446;52.192;4.628;2022-12-24T12:08:29;101237.53;;;19.20;50.95
71601;BME280;59446;52.192;4.628;2022-12-24T12:10:56;101249.88;;;19.19;51.01
71601;BME280;59446;52.192;4.628;2022-12-24T12:13:27;101249.03;;;19.19;50.94
71601;BME280;59446;52.192;4.628;2022-12-24T12:16:33;101258.00;;;19.16;51.21
71601;BME280;59446;52.192;4.628;2022-12-24T12:19:20;101257.31;;;19.13;51.08
71601;BME280;59446;52.192;4.628;2022-12-24T12:21:50;101259.88;;;19.14;50.76
71601;BME280;59446;52.192;4.628;2022-12-24T12:27:00;101259.38;;;19.07;51.06
71601;BME280;59446;52.192;4.628;2022-12-24T12:29:41;101257.50;;;19.09;51.13
71601;BME280;59446;52.192;4.628;2022-12-24T12:32:25;101259.53;;;19.04;51.04
71601;BME280;59446;52.192;4.628;2022-12-24T12:35:14;101279.38;;;19.12;50.95
71601;BME280;59446;52.192;4.628;2022-12-24T12:37:44;101282.38;;;19.05;50.81
71601;BME280;59446;52.192;4.628;2022-12-24T12:40:16;101281.66;;;19.02;50.88
71601;BME280;59446;52.192;4.628;2022-12-24T12:42:52;101281.34;;;19.08;50.72
71601;BME280;59446;52.192;4.628;2022-12-24T12:45:46;101285.16;;;19.02;50.91
71601;BME280;59446;52.192;4.628;2022-12-24T12:48:39;101279.97;;;19.01;50.84
71601;BME280;59446;52.192;4.628;2022-12-24T12:51:22;101292.94;;;19.05;50.73
71601;BME280;59446;52.192;4.628;2022-12-24T12:56:32;101289.69;;;19.00;50.80
71601;BME280;59446;52.192;4.628;2022-12-24T12:59:16;101282.53;;;19.02;50.68
71601;BME280;59446;52.192;4.628;2022-12-24T13:14:07;101296.38;;;19.22;50.75
71601;BME280;59446;52.192;4.628;2022-12-24T13:22:21;101301.19;;;19.31;50.79
71601;BME280;59446;52.192;4.628;2022-12-24T13:24:49;101316.66;;;19.37;50.81
71601;BME280;59446;52.192;4.628;2022-12-24T13:27:22;101324.78;;;19.34;50.86
71601;BME280;59446;52.192;4.628;2022-12-24T13:32:59;101325.63;;;19.34;50.99
71601;BME280;59446;52.192;4.628;2022-12-24T13:35:27;101332.59;;;19.35;50.88
71601;BME280;59446;52.192;4.628;2022-12-24T13:38:31;101329.38;;;19.30;51.13
71601;BME280;59446;52.192;4.628;2022-12-24T13:40:55;101334.41;;;19.35;50.83
71601;BME280;59446;52.192;4.628;2022-12-24T13:49:28;101341.56;;;19.33;51.29
71601;BME280;59446;52.192;4.628;2022-12-24T13:52:24;101345.53;;;19.40;50.94
71601;BME280;59446;52.192;4.628;2022-12-24T13:57:39;101348.28;;;19.38;51.29
71601;BME280;59446;52.192;4.628;2022-12-24T14:05:31;101342.31;;;19.51;50.71
71601;BME280;59446;52.192;4.628;2022-12-24T14:08:01;101341.59;;;19.47;50.66
71601;BME280;59446;52.192;4.628;2022-12-24T14:10:32;101340.94;;;19.44;50.61
71601;BME280;59446;52.192;4.628;2022-12-24T14:12:59;101342.13;;;19.38;51.03
71601;BME280;59446;52.192;4.628;2022-12-24T14:18:21;101341.88;;;19.27;51.00
71601;BME280;59446;52.192;4.628;2022-12-24T14:20:49;101339.84;;;19.16;51.08
71601;BME280;59446;52.192;4.628;2022-12-24T14:23:41;101357.81;;;19.09;51.37
71601;BME280;59446;52.192;4.628;2022-12-24T14:26:15;101351.91;;;19.04;51.38